West Bainbridge, Georgia
Current Conditions -  °F | °C
As of 11:15 AM on Monday 26 Jan 2015 (Local Time) from KBGE Reporting Station
Scattered Clouds Scattered Clouds  
Wind Chill: 57°   Ceiling: Unl
Heat Index: 57°   Visibility: 10mi
Dew Point: 41°   Wind: 14mph
Humidity: 55%   Direction: 310°NW
Pressure: 29.95"   Gusts: 23mph
Location:  30.9708°N, 84.5902°W
Report Text: KBGE 261615Z AUTO 31012G20KT 10SM SCT037 14/05 A2995 RMK AO2
Loading
Personal Weather Stations






























Interactive Weather Map New forecast layout! Learn more

10-Day Weather Forecast

Advertisements
Track Severe Weather on mobile